Aviation Digital Data Service (ADDS)

Output produced by METARs form (1908 UTC 18 June 2019)
found at http://www.aviationweather.gov/metar/data/
 
Forecast for: GBYD (BANJUL/YUNDUM IN, GM)
Text: TAF GBYD 181730Z 1818/1924 23008KT CAVOK
Forecast period: 1800 UTC 18 June 2019 to 0000 UTC 20 June 2019
Forecast type: FROM: standard forecast or significant change
Winds: from the SW (230 degrees) at 9 MPH (8 knots; 4.1 m/s)
Visibility: 6 or more miles 10+ km)
Ceiling: unknown
Clouds: missing
Weather: NSW  (no significant weather)